Latest Weather Observations for Warwick

IDQ60901

Issued at 12:51 pm EST Saturday 23 May 2015 (issued every 10 minutes, with the page automatically refreshed every 10 minutes)

About weather observations | Map of Brisbane area stations | Latest observations for Brisbane area | Other Formats
Station Details ID: 041525 Name: WARWICK Lat: -28.21 Lon: 152.10 Height: 475.4 m
Data from the previous 72 hours. | See also: Recent months at Warwick
Date/Time
EST
Tmp

°C
App
Tmp
°C
Dew
Point
°C
Rel
Hum
%
Delta-T

°C
Wind Press
QNH
hPa
Press
MSL
hPa
Rain
since
9 am
mm
Dir
 
Spd
km/h
Gust
km/h
Spd
kts
Gust
kts
23/12:30pm 16.3 11.5 7.5 56 4.5 SE 22 32 12 17 1024.4 1023.8 0.0
23/12:00pm 15.7 10.5 7.4 57 4.2 SE 24 39 13 21 1024.6 1024.0 0.0
23/11:30am 16.2 10.7 7.6 56 4.4 SE 26 39 14 21 1024.8 1024.2 0.0
23/11:00am 16.3 11.6 7.7 56 4.4 SE 22 39 12 21 1024.9 1024.3 0.0
23/10:30am 16.0 11.6 7.3 56 4.4 SE 20 33 11 18 1025.0 1024.4 0.0
23/10:00am 15.6 11.3 7.8 59 4.0 SE 20 39 11 21 1025.1 1024.5 0.0
23/09:30am 14.7 10.4 7.8 63 3.5 SE 20 37 11 20 1025.0 1024.4 0.0
23/08:30am 12.9 8.6 7.7 70 2.6 SE 20 39 11 21 1024.4 1023.8 0.0
23/08:00am 10.4 8.7 7.5 82 1.4 SE 6 13 3 7 1024.1 1023.5 0.0
23/07:30am 8.7 6.7 7.0 89 0.8 SE 7 11 4 6 1023.6 1023.0 0.0
23/07:00am 5.4 4.3 4.9 97 0.2 CALM 0 0 0 0 1023.4 1022.8 0.0
23/06:30am 6.0 4.7 4.2 88 0.8 CALM 0 0 0 0 1022.6 1022.0 0.0
23/05:30am 5.3 4.2 5.3 100 0.0 CALM 0 0 0 0 1022.2 1021.6 0.0
23/05:00am 5.2 4.1 5.2 100 0.0 CALM 0 0 0 0 1022.0 1021.3 0.0
23/04:30am 4.5 2.9 4.5 100 0.0 SW 2 9 1 5 1021.8 1021.1 0.0
23/04:00am 4.8 3.6 4.6 99 0.1 CALM 0 0 0 0 1021.5 1020.9 0.0
23/03:30am 5.1 3.2 5.1 100 0.0 SW 4 9 2 5 1021.4 1020.8 0.0
23/03:00am 5.5 4.5 5.5 100 0.0 CALM 0 0 0 0 1021.3 1020.7 0.0
23/02:30am 7.1 6.3 6.5 96 0.3 CALM 0 0 0 0 1020.9 1020.3 0.0
23/02:00am 7.9 7.3 7.5 97 0.2 CALM 0 0 0 0 1021.0 1020.4 0.0
23/01:30am 9.1 8.6 7.9 92 0.6 CALM 0 6 0 3 1021.0 1020.4 0.0
23/01:00am 9.9 8.2 8.3 90 0.8 W 7 9 4 5 1021.0 1020.4 0.0
23/12:30am 10.5 8.4 8.3 86 1.1 W 9 11 5 6 1021.0 1020.4 0.0
23/12:00am 10.6 8.5 8.2 85 1.2 W 9 13 5 7 1021.0 1020.4 0.0
 
Date/Time
EST
Tmp

°C
App
Tmp
°C
Dew
Point
°C
Rel
Hum
%
Delta-T

°C
Wind Press
QNH
hPa
Press
MSL
hPa
Rain
since
9 am
mm
Dir
 
Spd
km/h
Gust
km/h
Spd
kts
Gust
kts
22/11:30pm 11.0 9.0 8.6 85 1.2 W 9 13 5 7 1021.0 1020.4 0.0
22/11:00pm 10.6 8.5 8.2 85 1.2 W 9 15 5 8 1021.0 1020.4 0.0
22/10:30pm 10.7 7.8 8.3 85 1.2 W 13 17 7 9 1020.9 1020.3 0.0
22/10:00pm 10.9 8.4 8.1 83 1.4 WNW 11 17 6 9 1021.0 1020.4 0.0
22/09:30pm 10.8 8.3 8.0 83 1.4 W 11 15 6 8 1020.8 1020.2 0.0
22/09:00pm 11.4 8.5 8.0 79 1.7 WNW 13 17 7 9 1020.5 1019.9 0.0
22/08:30pm 11.3 8.8 8.1 81 1.6 WNW 11 17 6 9 1020.2 1019.6 0.0
22/08:00pm 10.5 8.4 8.3 86 1.1 W 9 13 5 7 1019.9 1019.2 0.0
22/07:30pm 11.0 8.9 8.2 83 1.4 W 9 15 5 8 1019.9 1019.2 0.0
22/07:00pm 11.8 8.9 8.0 77 1.9 W 13 20 7 11 1019.5 1018.8 0.0
22/06:30pm 11.9 8.9 7.7 75 2.1 W 13 20 7 11 1019.3 1018.7 0.0
22/06:00pm 11.9 8.9 7.7 75 2.1 W 13 22 7 12 1018.6 1018.0 0.0
22/05:30pm 11.8 8.7 7.4 74 2.2 W 13 20 7 11 1018.2 1017.5 0.0
22/05:00pm 12.3 8.8 7.3 71 2.5 W 15 28 8 15 1018.1 1017.4 0.0
22/04:30pm 13.5 8.9 6.4 62 3.5 WSW 20 37 11 20 1018.1 1017.4 0.0
22/04:00pm 13.7 8.2 6.1 60 3.7 WSW 24 37 13 20 1017.6 1016.9 0.0
22/03:30pm 13.5 9.2 6.8 64 3.3 WSW 19 35 10 19 1017.1 1016.5 0.0
22/03:00pm 13.8 8.4 6.3 60 3.7 W 24 37 13 20 1016.4 1015.7 0.0
22/02:30pm 14.1 7.6 4.9 54 4.4 WSW 28 39 15 21 1016.7 1016.1 0.0
22/02:02pm 14.4 7.9 4.8 52 4.6 WSW 28 50 15 27 1016.7 1016.1 0.0
22/02:00pm 14.3 8.6 4.9 53 4.5 WSW 24 50 13 27 1016.7 1016.1 0.0
22/01:30pm 12.9 8.4 7.0 67 2.9 WSW 20 35 11 19 1017.0 1016.4 0.0
22/01:00pm 12.7 6.6 6.6 66 3.0 WSW 28 41 15 22 1017.5 1016.8 0.0
22/12:49pm 13.0 6.8 6.2 63 3.3 WSW 28 46 15 25 1017.3 1016.6 0.0
22/12:30pm 13.5 7.9 5.6 59 3.8 WSW 24 37 13 20 1017.4 1016.7 0.0
22/12:00pm 13.3 7.7 5.6 59 3.7 WSW 24 39 13 21 1017.7 1017.0 0.0
22/11:30am 13.1 7.5 5.6 60 3.6 WSW 24 37 13 20 1017.9 1017.2 0.0
22/11:00am 12.5 6.6 5.6 63 3.3 WSW 26 43 14 23 1018.3 1017.6 0.0
22/10:30am 12.6 6.6 5.2 60 3.5 WSW 26 41 14 22 1018.7 1018.1 0.0
22/10:00am 12.7 7.6 5.9 63 3.3 W 22 33 12 18 1018.8 1018.2 0.0
22/09:30am 11.5 7.7 7.5 76 2.0 WNW 17 30 9 16 1018.8 1018.2 0.0
22/09:00am 11.9 8.0 7.0 72 2.4 WSW 17 28 9 15 1018.6 1018.0 3.0
22/08:30am 11.3 8.3 7.7 78 1.8 WNW 13 22 7 12 1018.5 1017.9 3.0
22/08:00am 10.6 8.0 7.6 82 1.5 WNW 11 19 6 10 1018.3 1017.6 3.0
22/07:30am 9.9 7.5 6.8 81 1.5 W 9 19 5 10 1018.1 1017.4 3.0
22/07:00am 9.1 6.2 6.4 83 1.3 W 11 20 6 11 1018.0 1017.3 3.0
22/06:30am 9.3 5.1 5.9 79 1.6 W 17 26 9 14 1017.4 1016.7 3.0
22/06:00am 9.9 6.9 6.1 77 1.8 WNW 11 17 6 9 1016.8 1016.2 3.0
22/05:30am 8.0 6.5 6.7 91 0.6 WNW 4 7 2 4 1016.6 1016.0 3.0
22/05:00am 7.6 6.9 6.8 95 0.4 CALM 0 0 0 0 1016.5 1015.8 3.0
22/04:30am 8.8 8.1 7.1 89 0.8 CALM 0 0 0 0 1016.8 1016.2 3.0
22/04:00am 9.8 7.5 7.6 86 1.1 WSW 9 13 5 7 1017.0 1016.4 3.0
22/03:30am 10.6 6.5 7.8 83 1.4 WSW 19 28 10 15 1017.1 1016.5 3.0
22/03:00am 12.5 10.6 10.6 88 1.0 WSW 11 35 6 19 1016.9 1016.3 3.0
22/02:30am 12.7 11.0 11.2 91 0.8 W 11 22 6 12 1016.8 1016.2 3.0
22/02:00am 12.9 11.1 12.0 94 0.5 W 13 24 7 13 1016.9 1016.3 3.0
22/01:30am 13.0 12.1 12.5 97 0.3 W 9 15 5 8 1017.1 1016.5 2.8
22/01:00am 13.3 12.0 12.4 94 0.5 W 11 17 6 9 1017.4 1016.7 2.4
22/12:30am 13.6 12.2 12.3 92 0.7 WNW 11 17 6 9 1017.8 1017.1 2.4
22/12:00am 13.8 12.2 12.7 93 0.6 WNW 13 17 7 9 1018.1 1017.4 2.4
 
Date/Time
EST
Tmp

°C
App
Tmp
°C
Dew
Point
°C
Rel
Hum
%
Delta-T

°C
Wind Press
QNH
hPa
Press
MSL
hPa
Rain
since
9 am
mm
Dir
 
Spd
km/h
Gust
km/h
Spd
kts
Gust
kts
21/11:30pm 13.7 12.5 12.8 94 0.5 WNW 11 17 6 9 1017.9 1017.2 2.4
21/11:00pm 13.7 12.6 13.0 96 0.4 NW 11 17 6 9 1018.3 1017.6 2.2
21/10:30pm 14.0 12.8 12.7 92 0.7 NW 11 15 6 8 1018.4 1017.8 2.0
21/10:00pm 14.0 13.1 12.7 92 0.7 NW 9 15 5 8 1018.5 1017.9 2.0
21/09:30pm 14.0 12.8 12.7 92 0.7 NW 11 19 6 10 1018.7 1018.1 2.0
21/09:00pm 14.0 13.2 12.9 93 0.6 NW 9 17 5 9 1018.6 1018.0 2.0
21/08:30pm 13.9 13.1 13.0 94 0.5 NNW 9 15 5 8 1018.7 1018.1 2.0
21/08:00pm 13.9 13.1 13.0 94 0.5 NNW 9 13 5 7 1018.2 1017.5 2.0
21/07:30pm 14.0 12.4 12.9 93 0.6 NNW 13 15 7 8 1018.2 1017.5 2.0
21/07:00pm 13.9 12.3 12.8 93 0.6 NNW 13 22 7 12 1018.2 1017.5 1.8
21/06:30pm 13.9 13.4 12.8 93 0.6 NW 7 11 4 6 1018.4 1017.8 1.8
21/06:00pm 14.0 14.5 12.9 93 0.6 NW 2 11 1 6 1018.2 1017.5 1.4
21/05:30pm 14.1 13.3 12.9 92 0.7 N 9 13 5 7 1017.9 1017.2 1.2
21/05:00pm 14.3 13.5 12.9 91 0.8 N 9 11 5 6 1018.3 1017.6 0.8
21/04:30pm 14.3 14.2 13.2 93 0.6 N 6 9 3 5 1018.1 1017.4 0.4
21/04:00pm 14.5 13.9 13.6 94 0.5 NNE 9 13 5 7 1018.1 1017.4 0.4
21/03:30pm 14.6 14.0 13.5 93 0.6 W 9 13 5 7 1018.5 1017.9 0.0
21/03:00pm 15.3 14.6 13.2 87 1.2 W 9 17 5 9 1018.5 1017.9 0.0
21/02:30pm 15.8 14.4 13.3 85 1.4 WSW 13 22 7 12 1018.5 1017.9 0.0
21/02:00pm 16.7 15.3 13.4 81 1.9 WSW 13 20 7 11 1018.3 1017.6 0.0
21/01:30pm 17.3 16.6 13.3 77 2.3 WSW 9 15 5 8 1017.9 1017.2 0.0
21/01:00pm 17.8 18.8 13.1 74 2.7 CALM 0 6 0 3 1017.9 1017.2 0.0
21/12:30pm 17.7 17.4 12.8 73 2.8 S 6 11 3 6 1018.3 1017.6 0.0
21/12:00pm 17.3 17.4 12.7 74 2.6 S 4 9 2 5 1018.8 1018.2 0.0
21/11:30am 17.0 16.0 13.5 80 2.0 SSW 11 15 6 8 1019.5 1018.8 0.0
21/11:00am 16.7 15.4 13.6 82 1.8 SW 13 19 7 10 1020.0 1019.3 0.0
21/10:30am 16.0 15.2 14.1 88 1.1 W 11 17 6 9 1020.3 1019.7 0.0
21/10:00am 16.3 15.5 15.1 93 0.7 W 13 24 7 13 1020.3 1019.7 0.0
21/09:30am 16.7 16.5 15.7 94 0.6 W 11 17 6 9 1020.2 1019.6 0.0
21/09:00am 17.7 17.4 15.4 86 1.4 NW 11 17 6 9 1019.9 1019.2 0.8
21/08:30am 17.8 17.8 15.3 85 1.5 NNW 9 15 5 8 1019.6 1018.9 0.8
21/08:00am 17.5 17.1 15.3 87 1.3 NNE 11 13 6 7 1019.2 1018.6 0.6
21/07:30am 16.4 17.3 15.2 93 0.7 NNE 4 11 2 6 1019.2 1018.6 0.6
21/07:00am 15.4 17.0 14.9 97 0.3 CALM 0 0 0 0 1018.9 1018.3 0.6
21/06:30am 15.4 17.1 15.1 98 0.2 CALM 0 0 0 0 1018.9 1018.3 0.6
21/06:00am 15.4 17.0 14.9 97 0.3 CALM 0 0 0 0 1018.7 1018.1 0.6
21/05:30am 16.3 16.3 15.3 94 0.6 N 9 11 5 6 1018.4 1017.8 0.6
21/05:00am 15.9 17.6 15.2 96 0.4 CALM 0 0 0 0 1018.5 1017.9 0.6
21/04:30am 15.6 17.2 14.9 96 0.4 CALM 0 4 0 2 1018.4 1017.8 0.6
21/04:00am 15.8 17.5 15.1 96 0.4 CALM 0 0 0 0 1018.5 1017.9 0.6
21/03:30am 15.0 16.4 14.3 96 0.4 CALM 0 0 0 0 1018.6 1018.0 0.6
21/03:00am 15.6 16.0 14.7 94 0.5 W 6 9 3 5 1018.7 1018.1 0.2
21/02:30am 15.6 15.2 14.2 91 0.8 WSW 9 15 5 8 1018.7 1018.1 0.2
21/02:00am 14.6 14.4 13.7 94 0.5 WSW 7 11 4 6 1018.6 1018.0 0.2
21/01:30am 13.6 13.4 13.1 97 0.3 WNW 6 9 3 5 1018.6 1018.0 0.2
21/01:00am 12.6 13.3 12.1 97 0.3 CALM 0 0 0 0 1018.7 1018.1 0.2
21/12:30am 13.5 14.4 13.0 97 0.3 CALM 0 0 0 0 1019.0 1018.4 0.2
21/12:00am 13.5 14.4 13.0 97 0.3 CALM 0 0 0 0 1019.1 1018.5 0.2
 
Date/Time
EST
Tmp

°C
App
Tmp
°C
Dew
Point
°C
Rel
Hum
%
Delta-T

°C
Wind Press
QNH
hPa
Press
MSL
hPa
Rain
since
9 am
mm
Dir
 
Spd
km/h
Gust
km/h
Spd
kts
Gust
kts
20/11:30pm 13.6 14.6 13.1 97 0.3 CALM 0 0 0 0 1019.5 1018.8 0.2
20/11:00pm 14.2 15.3 13.5 96 0.4 CALM 0 0 0 0 1019.6 1018.9 0.0
20/10:30pm 14.6 14.6 13.7 94 0.5 WNW 6 9 3 5 1019.9 1019.2 0.0
20/10:00pm 15.5 15.6 13.8 90 1.0 NNE 6 9 3 5 1019.6 1018.9 0.0
20/09:30pm 15.2 16.2 13.3 88 1.1 CALM 0 0 0 0 1019.9 1019.2 0.0
20/09:00pm 14.4 15.4 13.3 93 0.6 CALM 0 0 0 0 1020.4 1019.8 0.0
20/08:30pm 13.5 13.0 12.6 94 0.5 SW 7 9 4 5 1020.0 1019.3 0.0
20/08:00pm 18.0 16.6 13.3 74 2.7 N 13 17 7 9 1019.6 1018.9 0.0
20/07:30pm 15.3 15.1 13.0 86 1.3 NE 6 7 3 4 1019.5 1018.8 0.0
20/07:00pm 16.1 15.9 12.9 81 1.8 NNW 6 7 3 4 1019.2 1018.6 0.0
20/06:30pm 17.7 16.9 12.8 73 2.8 N 9 11 5 6 1018.7 1018.1 0.0
20/06:00pm 17.7 17.3 12.4 71 3.0 NNE 6 13 3 7 1018.1 1017.4 0.0
20/05:30pm 17.0 18.0 13.2 78 2.2 CALM 0 0 0 0 1018.5 1017.9 0.0
20/05:00pm 19.3 21.0 15.3 77 2.4 CALM 0 0 0 0 1018.4 1017.8 0.0
20/04:30pm 21.2 23.0 15.4 69 3.5 CALM 0 0 0 0 1018.4 1017.8 0.0
20/04:00pm 21.1 22.7 14.9 67 3.7 CALM 0 0 0 0 1018.4 1017.8 0.0
20/03:30pm 21.5 23.3 15.6 69 3.6 CALM 0 4 0 2 1018.3 1017.6 0.0
20/03:00pm 21.9 22.2 15.1 65 4.1 WSW 7 11 4 6 1018.4 1017.8 0.0
20/02:30pm 21.9 22.0 15.5 67 3.9 W 9 13 5 7 1018.5 1017.9 0.0
20/02:00pm 21.6 22.1 15.0 66 4.0 W 6 11 3 6 1018.6 1018.0 0.0
20/01:30pm 21.2 21.2 15.2 68 3.6 WSW 9 15 5 8 1018.7 1018.1 0.0
20/01:00pm 21.5 21.1 15.2 67 3.8 WSW 11 20 6 11 1019.0 1018.4 0.0

Latest Capital City Observations: Canberra | Sydney | Melbourne | Brisbane | Adelaide | Perth | Hobart | Darwin

Other Formats:

Comma delimited format used in spreadsheet applications
http://www.bom.gov.au/fwo/IDQ60901/IDQ60901.94555.axf

JavaScript Object Notation format (JSON) in row-major order
http://www.bom.gov.au/fwo/IDQ60901/IDQ60901.94555.json